sensor_id;sensor_type;location;lat;lon;timestamp;P1;durP1;ratioP1;P2;durP2;ratioP2
12214;SDS011;6170;42.206;24.142;2023-06-14T00:02:25;9.63;;;7.60;;
12214;SDS011;6170;42.206;24.142;2023-06-14T00:04:52;9.50;;;6.97;;
12214;SDS011;6170;42.206;24.142;2023-06-14T00:07:21;9.52;;;6.85;;
12214;SDS011;6170;42.206;24.142;2023-06-14T00:10:00;9.45;;;7.25;;
12214;SDS011;6170;42.206;24.142;2023-06-14T00:12:27;9.70;;;6.97;;
12214;SDS011;6170;42.206;24.142;2023-06-14T00:14:54;12.55;;;6.95;;
12214;SDS011;6170;42.206;24.142;2023-06-14T00:17:21;9.73;;;7.32;;
12214;SDS011;6170;42.206;24.142;2023-06-14T00:19:50;10.27;;;6.88;;
12214;SDS011;6170;42.206;24.142;2023-06-14T00:22:17;9.68;;;7.65;;
12214;SDS011;6170;42.206;24.142;2023-06-14T00:24:45;10.30;;;6.97;;
12214;SDS011;6170;42.206;24.142;2023-06-14T00:27:12;11.05;;;7.30;;
12214;SDS011;6170;42.206;24.142;2023-06-14T00:29:38;10.23;;;6.78;;
12214;SDS011;6170;42.206;24.142;2023-06-14T00:32:06;7.95;;;6.50;;
12214;SDS011;6170;42.206;24.142;2023-06-14T00:34:33;8.75;;;6.70;;
12214;SDS011;6170;42.206;24.142;2023-06-14T00:37:02;8.90;;;6.82;;
12214;SDS011;6170;42.206;24.142;2023-06-14T00:39:29;9.18;;;7.55;;
12214;SDS011;6170;42.206;24.142;2023-06-14T00:41:55;8.43;;;6.80;;
12214;SDS011;6170;42.206;24.142;2023-06-14T00:44:22;11.65;;;7.10;;
12214;SDS011;6170;42.206;24.142;2023-06-14T00:46:49;10.73;;;7.75;;
12214;SDS011;6170;42.206;24.142;2023-06-14T00:49:17;12.55;;;8.32;;
12214;SDS011;6170;42.206;24.142;2023-06-14T00:51:45;9.98;;;8.93;;
12214;SDS011;6170;42.206;24.142;2023-06-14T00:54:13;10.48;;;9.43;;
12214;SDS011;6170;42.206;24.142;2023-06-14T00:56:40;12.77;;;8.68;;
12214;SDS011;6170;42.206;24.142;2023-06-14T00:59:10;10.15;;;8.65;;
12214;SDS011;6170;42.206;24.142;2023-06-14T01:01:37;12.52;;;10.23;;
12214;SDS011;6170;42.206;24.142;2023-06-14T01:04:04;12.38;;;9.50;;
12214;SDS011;6170;42.206;24.142;2023-06-14T01:06:32;14.75;;;11.02;;
12214;SDS011;6170;42.206;24.142;2023-06-14T01:09:09;12.00;;;10.05;;
12214;SDS011;6170;42.206;24.142;2023-06-14T01:11:47;10.88;;;9.75;;
12214;SDS011;6170;42.206;24.142;2023-06-14T01:14:21;14.00;;;11.15;;
12214;SDS011;6170;42.206;24.142;2023-06-14T01:16:50;11.73;;;10.32;;
12214;SDS011;6170;42.206;24.142;2023-06-14T01:19:18;19.10;;;11.25;;
12214;SDS011;6170;42.206;24.142;2023-06-14T01:21:47;17.45;;;10.88;;
12214;SDS011;6170;42.206;24.142;2023-06-14T01:24:17;11.80;;;10.52;;
12214;SDS011;6170;42.206;24.142;2023-06-14T01:26:48;12.77;;;11.10;;
12214;SDS011;6170;42.206;24.142;2023-06-14T01:29:17;12.20;;;10.80;;
12214;SDS011;6170;42.206;24.142;2023-06-14T01:31:44;13.07;;;11.77;;
12214;SDS011;6170;42.206;24.142;2023-06-14T01:34:12;14.30;;;11.40;;
12214;SDS011;6170;42.206;24.142;2023-06-14T01:36:39;11.32;;;9.95;;
12214;SDS011;6170;42.206;24.142;2023-06-14T01:39:08;11.35;;;9.30;;
12214;SDS011;6170;42.206;24.142;2023-06-14T01:41:37;10.95;;;9.57;;
12214;SDS011;6170;42.206;24.142;2023-06-14T01:44:04;18.17;;;10.32;;
12214;SDS011;6170;42.206;24.142;2023-06-14T01:46:32;11.73;;;9.30;;
12214;SDS011;6170;42.206;24.142;2023-06-14T01:48:59;14.02;;;9.75;;
12214;SDS011;6170;42.206;24.142;2023-06-14T01:51:26;11.27;;;9.27;;
12214;SDS011;6170;42.206;24.142;2023-06-14T01:53:53;9.35;;;8.35;;
12214;SDS011;6170;42.206;24.142;2023-06-14T01:56:20;10.82;;;9.02;;
12214;SDS011;6170;42.206;24.142;2023-06-14T01:58:48;10.52;;;9.13;;
12214;SDS011;6170;42.206;24.142;2023-06-14T02:01:15;10.27;;;8.80;;
12214;SDS011;6170;42.206;24.142;2023-06-14T02:03:44;11.02;;;9.15;;
12214;SDS011;6170;42.206;24.142;2023-06-14T02:06:11;13.40;;;9.90;;
12214;SDS011;6170;42.206;24.142;2023-06-14T02:08:38;10.93;;;9.85;;
12214;SDS011;6170;42.206;24.142;2023-06-14T02:11:05;12.43;;;9.23;;
12214;SDS011;6170;42.206;24.142;2023-06-14T02:13:32;13.73;;;10.13;;
12214;SDS011;6170;42.206;24.142;2023-06-14T02:16:01;13.02;;;9.80;;
12214;SDS011;6170;42.206;24.142;2023-06-14T02:18:27;14.63;;;9.32;;
12214;SDS011;6170;42.206;24.142;2023-06-14T02:20:55;11.48;;;10.00;;
12214;SDS011;6170;42.206;24.142;2023-06-14T02:23:22;11.38;;;9.98;;
12214;SDS011;6170;42.206;24.142;2023-06-14T02:25:48;15.60;;;8.93;;
12214;SDS011;6170;42.206;24.142;2023-06-14T02:28:16;10.77;;;9.40;;
12214;SDS011;6170;42.206;24.142;2023-06-14T02:30:42;12.77;;;8.95;;
12214;SDS011;6170;42.206;24.142;2023-06-14T02:33:11;10.43;;;9.30;;
12214;SDS011;6170;42.206;24.142;2023-06-14T02:35:38;11.40;;;9.25;;
12214;SDS011;6170;42.206;24.142;2023-06-14T02:38:05;12.02;;;8.35;;
12214;SDS011;6170;42.206;24.142;2023-06-14T02:40:32;13.65;;;8.38;;
12214;SDS011;6170;42.206;24.142;2023-06-14T02:42:58;10.15;;;8.88;;
12214;SDS011;6170;42.206;24.142;2023-06-14T02:45:27;9.30;;;8.38;;
12214;SDS011;6170;42.206;24.142;2023-06-14T02:47:53;9.20;;;8.15;;
12214;SDS011;6170;42.206;24.142;2023-06-14T02:50:22;9.65;;;8.70;;
12214;SDS011;6170;42.206;24.142;2023-06-14T02:52:49;9.68;;;8.27;;
12214;SDS011;6170;42.206;24.142;2023-06-14T02:55:17;13.55;;;8.25;;
12214;SDS011;6170;42.206;24.142;2023-06-14T02:57:44;11.95;;;8.13;;
12214;SDS011;6170;42.206;24.142;2023-06-14T03:00:13;13.77;;;8.57;;
12214;SDS011;6170;42.206;24.142;2023-06-14T03:02:40;15.88;;;9.15;;
12214;SDS011;6170;42.206;24.142;2023-06-14T03:05:08;11.23;;;9.40;;
12214;SDS011;6170;42.206;24.142;2023-06-14T03:07:36;10.48;;;9.40;;
12214;SDS011;6170;42.206;24.142;2023-06-14T03:10:06;12.82;;;10.20;;
12214;SDS011;6170;42.206;24.142;2023-06-14T03:12:34;13.95;;;9.93;;
12214;SDS011;6170;42.206;24.142;2023-06-14T03:15:02;13.82;;;10.55;;
12214;SDS011;6170;42.206;24.142;2023-06-14T03:17:29;12.40;;;11.05;;
12214;SDS011;6170;42.206;24.142;2023-06-14T03:19:58;12.02;;;10.70;;
12214;SDS011;6170;42.206;24.142;2023-06-14T03:22:25;13.35;;;11.90;;
12214;SDS011;6170;42.206;24.142;2023-06-14T03:24:55;13.85;;;12.30;;
12214;SDS011;6170;42.206;24.142;2023-06-14T03:27:22;19.83;;;13.18;;
12214;SDS011;6170;42.206;24.142;2023-06-14T03:29:48;14.15;;;12.55;;
12214;SDS011;6170;42.206;24.142;2023-06-14T03:32:15;14.55;;;12.93;;
12214;SDS011;6170;42.206;24.142;2023-06-14T03:34:42;17.67;;;13.07;;
12214;SDS011;6170;42.206;24.142;2023-06-14T03:37:10;21.17;;;12.95;;
12214;SDS011;6170;42.206;24.142;2023-06-14T03:39:37;13.35;;;12.02;;
12214;SDS011;6170;42.206;24.142;2023-06-14T03:42:12;17.08;;;11.07;;
12214;SDS011;6170;42.206;24.142;2023-06-14T03:44:39;17.15;;;11.65;;
12214;SDS011;6170;42.206;24.142;2023-06-14T03:47:06;12.20;;;10.95;;
12214;SDS011;6170;42.206;24.142;2023-06-14T03:49:34;14.65;;;12.18;;
12214;SDS011;6170;42.206;24.142;2023-06-14T03:52:02;16.05;;;12.32;;
12214;SDS011;6170;42.206;24.142;2023-06-14T03:54:29;14.00;;;12.25;;
12214;SDS011;6170;42.206;24.142;2023-06-14T03:56:57;18.80;;;12.43;;
12214;SDS011;6170;42.206;24.142;2023-06-14T03:59:26;15.35;;;12.48;;
12214;SDS011;6170;42.206;24.142;2023-06-14T04:01:53;13.90;;;12.50;;
12214;SDS011;6170;42.206;24.142;2023-06-14T04:04:21;14.40;;;12.02;;
12214;SDS011;6170;42.206;24.142;2023-06-14T04:06:54;14.95;;;12.50;;
12214;SDS011;6170;42.206;24.142;2023-06-14T04:09:21;15.15;;;12.45;;
12214;SDS011;6170;42.206;24.142;2023-06-14T04:11:50;14.35;;;12.25;;
12214;SDS011;6170;42.206;24.142;2023-06-14T04:14:18;14.45;;;12.88;;
12214;SDS011;6170;42.206;24.142;2023-06-14T04:16:46;15.35;;;12.75;;
12214;SDS011;6170;42.206;24.142;2023-06-14T04:19:14;16.77;;;13.00;;
12214;SDS011;6170;42.206;24.142;2023-06-14T04:21:41;17.45;;;13.63;;
12214;SDS011;6170;42.206;24.142;2023-06-14T04:24:08;18.08;;;13.38;;
12214;SDS011;6170;42.206;24.142;2023-06-14T04:26:38;14.50;;;12.82;;
12214;SDS011;6170;42.206;24.142;2023-06-14T04:29:05;20.73;;;14.10;;
12214;SDS011;6170;42.206;24.142;2023-06-14T04:31:32;18.13;;;12.98;;
12214;SDS011;6170;42.206;24.142;2023-06-14T04:34:00;16.70;;;12.77;;
12214;SDS011;6170;42.206;24.142;2023-06-14T04:36:30;13.25;;;11.88;;
12214;SDS011;6170;42.206;24.142;2023-06-14T04:39:00;14.23;;;12.73;;
12214;SDS011;6170;42.206;24.142;2023-06-14T04:41:28;14.30;;;12.93;;
12214;SDS011;6170;42.206;24.142;2023-06-14T04:43:56;14.05;;;12.30;;
12214;SDS011;6170;42.206;24.142;2023-06-14T04:46:26;14.20;;;11.90;;
12214;SDS011;6170;42.206;24.142;2023-06-14T04:48:53;14.02;;;12.52;;
12214;SDS011;6170;42.206;24.142;2023-06-14T04:51:21;13.05;;;11.25;;
12214;SDS011;6170;42.206;24.142;2023-06-14T04:53:54;12.77;;;11.45;;
12214;SDS011;6170;42.206;24.142;2023-06-14T04:56:23;12.55;;;11.27;;
12214;SDS011;6170;42.206;24.142;2023-06-14T04:58:51;12.55;;;11.25;;
12214;SDS011;6170;42.206;24.142;2023-06-14T05:01:19;19.15;;;11.55;;
12214;SDS011;6170;42.206;24.142;2023-06-14T05:03:46;13.50;;;11.70;;
12214;SDS011;6170;42.206;24.142;2023-06-14T05:06:14;13.50;;;11.25;;
12214;SDS011;6170;42.206;24.142;2023-06-14T05:08:43;20.50;;;11.50;;
12214;SDS011;6170;42.206;24.142;2023-06-14T05:11:10;14.90;;;11.48;;
12214;SDS011;6170;42.206;24.142;2023-06-14T05:13:37;15.18;;;11.60;;
12214;SDS011;6170;42.206;24.142;2023-06-14T05:16:05;14.88;;;11.70;;
12214;SDS011;6170;42.206;24.142;2023-06-14T05:18:32;17.98;;;11.68;;
12214;SDS011;6170;42.206;24.142;2023-06-14T05:21:00;11.30;;;10.18;;
12214;SDS011;6170;42.206;24.142;2023-06-14T05:23:27;12.13;;;9.95;;
12214;SDS011;6170;42.206;24.142;2023-06-14T05:25:55;10.93;;;9.38;;
12214;SDS011;6170;42.206;24.142;2023-06-14T05:28:22;13.50;;;9.27;;
12214;SDS011;6170;42.206;24.142;2023-06-14T05:30:50;13.70;;;10.23;;
12214;SDS011;6170;42.206;24.142;2023-06-14T05:33:17;15.18;;;10.25;;
12214;SDS011;6170;42.206;24.142;2023-06-14T05:35:44;10.40;;;9.20;;
12214;SDS011;6170;42.206;24.142;2023-06-14T05:38:12;10.13;;;9.13;;
12214;SDS011;6170;42.206;24.142;2023-06-14T05:40:38;13.30;;;8.77;;
12214;SDS011;6170;42.206;24.142;2023-06-14T05:43:07;9.57;;;8.57;;
12214;SDS011;6170;42.206;24.142;2023-06-14T05:45:34;13.00;;;9.38;;
12214;SDS011;6170;42.206;24.142;2023-06-14T05:48:00;14.65;;;10.05;;
12214;SDS011;6170;42.206;24.142;2023-06-14T05:50:27;16.23;;;10.50;;
12214;SDS011;6170;42.206;24.142;2023-06-14T05:52:54;13.00;;;9.05;;
12214;SDS011;6170;42.206;24.142;2023-06-14T05:55:21;10.32;;;9.18;;
12214;SDS011;6170;42.206;24.142;2023-06-14T05:57:48;10.30;;;9.13;;
12214;SDS011;6170;42.206;24.142;2023-06-14T06:00:17;17.77;;;12.13;;
12214;SDS011;6170;42.206;24.142;2023-06-14T06:02:45;12.13;;;9.15;;
12214;SDS011;6170;42.206;24.142;2023-06-14T06:05:12;11.45;;;9.23;;
12214;SDS011;6170;42.206;24.142;2023-06-14T06:07:40;11.93;;;9.07;;
12214;SDS011;6170;42.206;24.142;2023-06-14T06:10:09;10.35;;;9.27;;
12214;SDS011;6170;42.206;24.142;2023-06-14T06:12:36;16.55;;;9.60;;
12214;SDS011;6170;42.206;24.142;2023-06-14T06:15:03;13.57;;;8.45;;
12214;SDS011;6170;42.206;24.142;2023-06-14T06:17:32;10.82;;;9.75;;
12214;SDS011;6170;42.206;24.142;2023-06-14T06:20:00;20.23;;;10.10;;
12214;SDS011;6170;42.206;24.142;2023-06-14T06:22:27;15.13;;;12.27;;
12214;SDS011;6170;42.206;24.142;2023-06-14T06:24:54;19.50;;;13.52;;
12214;SDS011;6170;42.206;24.142;2023-06-14T06:27:21;26.27;;;17.58;;
12214;SDS011;6170;42.206;24.142;2023-06-14T06:29:48;17.08;;;13.55;;
12214;SDS011;6170;42.206;24.142;2023-06-14T06:32:15;16.23;;;12.23;;
12214;SDS011;6170;42.206;24.142;2023-06-14T06:34:43;18.08;;;11.60;;
12214;SDS011;6170;42.206;24.142;2023-06-14T06:37:10;15.43;;;11.45;;
12214;SDS011;6170;42.206;24.142;2023-06-14T06:39:37;13.55;;;11.45;;
12214;SDS011;6170;42.206;24.142;2023-06-14T06:42:04;16.35;;;13.65;;
12214;SDS011;6170;42.206;24.142;2023-06-14T06:44:31;16.60;;;12.57;;
12214;SDS011;6170;42.206;24.142;2023-06-14T06:46:58;19.13;;;13.15;;
12214;SDS011;6170;42.206;24.142;2023-06-14T06:49:26;16.73;;;13.20;;
12214;SDS011;6170;42.206;24.142;2023-06-14T06:52:01;17.92;;;13.35;;
12214;SDS011;6170;42.206;24.142;2023-06-14T06:54:29;16.77;;;13.50;;
12214;SDS011;6170;42.206;24.142;2023-06-14T06:56:55;15.25;;;12.80;;
12214;SDS011;6170;42.206;24.142;2023-06-14T06:59:23;15.30;;;12.45;;
12214;SDS011;6170;42.206;24.142;2023-06-14T07:01:50;14.23;;;12.32;;
12214;SDS011;6170;42.206;24.142;2023-06-14T07:04:17;17.33;;;12.57;;
12214;SDS011;6170;42.206;24.142;2023-06-14T07:06:43;19.67;;;14.13;;
12214;SDS011;6170;42.206;24.142;2023-06-14T07:09:13;14.60;;;12.48;;
12214;SDS011;6170;42.206;24.142;2023-06-14T07:11:43;16.02;;;11.98;;
12214;SDS011;6170;42.206;24.142;2023-06-14T07:14:10;17.83;;;11.93;;
12214;SDS011;6170;42.206;24.142;2023-06-14T07:16:38;17.08;;;11.88;;
12214;SDS011;6170;42.206;24.142;2023-06-14T07:19:06;16.73;;;11.63;;
12214;SDS011;6170;42.206;24.142;2023-06-14T07:21:34;14.32;;;11.45;;
12214;SDS011;6170;42.206;24.142;2023-06-14T07:24:02;11.80;;;10.50;;
12214;SDS011;6170;42.206;24.142;2023-06-14T07:26:33;18.13;;;9.95;;
12214;SDS011;6170;42.206;24.142;2023-06-14T07:29:00;12.68;;;10.18;;
12214;SDS011;6170;42.206;24.142;2023-06-14T07:31:27;11.75;;;9.18;;
12214;SDS011;6170;42.206;24.142;2023-06-14T07:33:54;12.95;;;8.93;;
12214;SDS011;6170;42.206;24.142;2023-06-14T07:36:21;9.82;;;8.60;;
12214;SDS011;6170;42.206;24.142;2023-06-14T07:38:48;9.57;;;8.02;;
12214;SDS011;6170;42.206;24.142;2023-06-14T07:41:15;9.75;;;8.73;;
12214;SDS011;6170;42.206;24.142;2023-06-14T07:43:44;9.50;;;8.50;;
12214;SDS011;6170;42.206;24.142;2023-06-14T07:46:11;10.18;;;8.52;;
12214;SDS011;6170;42.206;24.142;2023-06-14T07:48:37;11.05;;;8.63;;
12214;SDS011;6170;42.206;24.142;2023-06-14T07:51:04;9.90;;;9.00;;
12214;SDS011;6170;42.206;24.142;2023-06-14T07:53:31;9.23;;;7.97;;
12214;SDS011;6170;42.206;24.142;2023-06-14T07:55:58;9.82;;;8.77;;
12214;SDS011;6170;42.206;24.142;2023-06-14T07:58:25;10.82;;;8.15;;
12214;SDS011;6170;42.206;24.142;2023-06-14T08:00:53;9.13;;;8.10;;
12214;SDS011;6170;42.206;24.142;2023-06-14T08:03:20;11.63;;;8.98;;
12214;SDS011;6170;42.206;24.142;2023-06-14T08:05:47;12.52;;;9.45;;
12214;SDS011;6170;42.206;24.142;2023-06-14T08:08:14;11.60;;;8.10;;
12214;SDS011;6170;42.206;24.142;2023-06-14T08:10:42;9.38;;;8.45;;
12214;SDS011;6170;42.206;24.142;2023-06-14T08:13:08;10.30;;;8.85;;
12214;SDS011;6170;42.206;24.142;2023-06-14T08:15:35;9.02;;;8.13;;
12214;SDS011;6170;42.206;24.142;2023-06-14T08:18:04;10.05;;;8.98;;
12214;SDS011;6170;42.206;24.142;2023-06-14T08:20:31;11.95;;;9.52;;
12214;SDS011;6170;42.206;24.142;2023-06-14T08:23:00;9.52;;;8.35;;
12214;SDS011;6170;42.206;24.142;2023-06-14T08:25:26;10.00;;;9.00;;
12214;SDS011;6170;42.206;24.142;2023-06-14T08:27:53;11.07;;;8.82;;
12214;SDS011;6170;42.206;24.142;2023-06-14T08:30:21;10.70;;;9.52;;
12214;SDS011;6170;42.206;24.142;2023-06-14T08:32:48;9.88;;;8.68;;
12214;SDS011;6170;42.206;24.142;2023-06-14T08:35:16;10.00;;;9.00;;
12214;SDS011;6170;42.206;24.142;2023-06-14T08:37:43;13.18;;;10.18;;
12214;SDS011;6170;42.206;24.142;2023-06-14T08:40:15;27.63;;;23.40;;
12214;SDS011;6170;42.206;24.142;2023-06-14T08:42:46;18.15;;;12.93;;
12214;SDS011;6170;42.206;24.142;2023-06-14T08:45:14;27.10;;;20.73;;
12214;SDS011;6170;42.206;24.142;2023-06-14T08:47:41;61.40;;;42.20;;
12214;SDS011;6170;42.206;24.142;2023-06-14T08:50:09;15.77;;;11.35;;
12214;SDS011;6170;42.206;24.142;2023-06-14T08:52:38;13.30;;;11.00;;
12214;SDS011;6170;42.206;24.142;2023-06-14T08:55:14;11.90;;;10.52;;
12214;SDS011;6170;42.206;24.142;2023-06-14T08:57:42;12.05;;;9.93;;
12214;SDS011;6170;42.206;24.142;2023-06-14T09:00:11;11.43;;;10.25;;
12214;SDS011;6170;42.206;24.142;2023-06-14T09:02:39;11.38;;;10.27;;
12214;SDS011;6170;42.206;24.142;2023-06-14T09:05:08;12.23;;;10.40;;
12214;SDS011;6170;42.206;24.142;2023-06-14T09:07:35;13.27;;;9.40;;
12214;SDS011;6170;42.206;24.142;2023-06-14T09:10:07;10.18;;;9.13;;
12214;SDS011;6170;42.206;24.142;2023-06-14T09:12:35;12.63;;;10.02;;
12214;SDS011;6170;42.206;24.142;2023-06-14T09:15:02;11.05;;;9.75;;
12214;SDS011;6170;42.206;24.142;2023-06-14T09:17:32;10.60;;;9.43;;
12214;SDS011;6170;42.206;24.142;2023-06-14T09:20:00;13.77;;;9.18;;
12214;SDS011;6170;42.206;24.142;2023-06-14T09:22:29;9.48;;;8.55;;
12214;SDS011;6170;42.206;24.142;2023-06-14T09:24:57;15.05;;;8.88;;
12214;SDS011;6170;42.206;24.142;2023-06-14T09:27:25;10.82;;;9.73;;
12214;SDS011;6170;42.206;24.142;2023-06-14T09:29:52;10.98;;;9.70;;
12214;SDS011;6170;42.206;24.142;2023-06-14T09:32:20;12.10;;;10.25;;
12214;SDS011;6170;42.206;24.142;2023-06-14T09:34:47;13.50;;;10.50;;
12214;SDS011;6170;42.206;24.142;2023-06-14T09:37:25;13.15;;;10.35;;
12214;SDS011;6170;42.206;24.142;2023-06-14T09:39:54;11.77;;;10.57;;
12214;SDS011;6170;42.206;24.142;2023-06-14T09:42:22;13.07;;;10.45;;
12214;SDS011;6170;42.206;24.142;2023-06-14T09:44:51;13.00;;;10.90;;
12214;SDS011;6170;42.206;24.142;2023-06-14T09:47:19;13.25;;;11.85;;
12214;SDS011;6170;42.206;24.142;2023-06-14T09:49:47;12.40;;;11.10;;
12214;SDS011;6170;42.206;24.142;2023-06-14T09:52:15;12.82;;;11.50;;
12214;SDS011;6170;42.206;24.142;2023-06-14T09:54:44;14.80;;;11.40;;
12214;SDS011;6170;42.206;24.142;2023-06-14T09:57:13;13.30;;;11.35;;
12214;SDS011;6170;42.206;24.142;2023-06-14T09:59:42;15.95;;;11.25;;
12214;SDS011;6170;42.206;24.142;2023-06-14T10:02:11;13.90;;;11.23;;
12214;SDS011;6170;42.206;24.142;2023-06-14T10:04:46;13.38;;;11.05;;
12214;SDS011;6170;42.206;24.142;2023-06-14T10:07:19;15.32;;;10.80;;
12214;SDS011;6170;42.206;24.142;2023-06-14T10:09:47;13.05;;;11.02;;
12214;SDS011;6170;42.206;24.142;2023-06-14T10:12:16;13.32;;;11.63;;
12214;SDS011;6170;42.206;24.142;2023-06-14T10:14:48;16.70;;;11.23;;
12214;SDS011;6170;42.206;24.142;2023-06-14T10:17:20;12.18;;;10.50;;
12214;SDS011;6170;42.206;24.142;2023-06-14T10:19:54;12.52;;;9.88;;
12214;SDS011;6170;42.206;24.142;2023-06-14T10:22:26;13.23;;;10.45;;
12214;SDS011;6170;42.206;24.142;2023-06-14T10:24:58;11.68;;;9.10;;
12214;SDS011;6170;42.206;24.142;2023-06-14T10:27:26;10.95;;;9.30;;
12214;SDS011;6170;42.206;24.142;2023-06-14T10:35:32;10.50;;;9.40;;
12214;SDS011;6170;42.206;24.142;2023-06-14T10:38:09;11.10;;;9.73;;
12214;SDS011;6170;42.206;24.142;2023-06-14T10:40:37;10.52;;;9.15;;
12214;SDS011;6170;42.206;24.142;2023-06-14T10:48:42;10.85;;;8.55;;
12214;SDS011;6170;42.206;24.142;2023-06-14T10:51:15;9.15;;;8.02;;
12214;SDS011;6170;42.206;24.142;2023-06-14T10:53:46;11.50;;;9.27;;
12214;SDS011;6170;42.206;24.142;2023-06-14T10:56:27;9.75;;;8.75;;
12214;SDS011;6170;42.206;24.142;2023-06-14T10:58:55;10.02;;;9.02;;
12214;SDS011;6170;42.206;24.142;2023-06-14T11:04:09;8.20;;;7.45;;
12214;SDS011;6170;42.206;24.142;2023-06-14T11:06:43;8.90;;;8.07;;
12214;SDS011;6170;42.206;24.142;2023-06-14T11:12:19;8.85;;;7.95;;
12214;SDS011;6170;42.206;24.142;2023-06-14T11:14:47;9.95;;;8.00;;
12214;SDS011;6170;42.206;24.142;2023-06-14T11:17:16;8.75;;;7.85;;
12214;SDS011;6170;42.206;24.142;2023-06-14T11:19:43;9.35;;;8.45;;
12214;SDS011;6170;42.206;24.142;2023-06-14T11:22:10;8.88;;;8.07;;
12214;SDS011;6170;42.206;24.142;2023-06-14T11:24:39;9.77;;;7.32;;
12214;SDS011;6170;42.206;24.142;2023-06-14T11:27:06;9.98;;;7.28;;
12214;SDS011;6170;42.206;24.142;2023-06-14T11:29:33;7.28;;;6.55;;
12214;SDS011;6170;42.206;24.142;2023-06-14T11:32:00;7.45;;;6.72;;
12214;SDS011;6170;42.206;24.142;2023-06-14T11:34:29;10.57;;;6.97;;
12214;SDS011;6170;42.206;24.142;2023-06-14T11:36:56;7.72;;;6.63;;
12214;SDS011;6170;42.206;24.142;2023-06-14T11:39:24;9.70;;;7.30;;
12214;SDS011;6170;42.206;24.142;2023-06-14T11:41:52;7.97;;;7.25;;
12214;SDS011;6170;42.206;24.142;2023-06-14T11:44:20;9.60;;;7.03;;
12214;SDS011;6170;42.206;24.142;2023-06-14T11:46:47;8.45;;;7.65;;
12214;SDS011;6170;42.206;24.142;2023-06-14T11:49:15;7.10;;;6.40;;
12214;SDS011;6170;42.206;24.142;2023-06-14T11:51:44;8.68;;;7.50;;
12214;SDS011;6170;42.206;24.142;2023-06-14T11:54:11;9.88;;;7.93;;
12214;SDS011;6170;42.206;24.142;2023-06-14T11:56:38;11.32;;;7.88;;
12214;SDS011;6170;42.206;24.142;2023-06-14T11:59:05;11.90;;;8.93;;
12214;SDS011;6170;42.206;24.142;2023-06-14T12:01:35;8.40;;;7.70;;
12214;SDS011;6170;42.206;24.142;2023-06-14T12:04:03;8.38;;;7.55;;
12214;SDS011;6170;42.206;24.142;2023-06-14T12:06:31;12.43;;;7.40;;
12214;SDS011;6170;42.206;24.142;2023-06-14T12:09:06;11.10;;;7.10;;
12214;SDS011;6170;42.206;24.142;2023-06-14T12:11:37;9.57;;;7.93;;
12214;SDS011;6170;42.206;24.142;2023-06-14T12:14:04;8.55;;;7.75;;
12214;SDS011;6170;42.206;24.142;2023-06-14T12:16:32;11.30;;;8.20;;
12214;SDS011;6170;42.206;24.142;2023-06-14T12:19:01;8.90;;;8.07;;
12214;SDS011;6170;42.206;24.142;2023-06-14T12:21:35;11.10;;;8.23;;
12214;SDS011;6170;42.206;24.142;2023-06-14T12:24:04;9.27;;;8.38;;
12214;SDS011;6170;42.206;24.142;2023-06-14T12:26:33;8.73;;;7.93;;
12214;SDS011;6170;42.206;24.142;2023-06-14T12:29:04;8.80;;;8.00;;
12214;SDS011;6170;42.206;24.142;2023-06-14T12:31:31;9.55;;;8.60;;
12214;SDS011;6170;42.206;24.142;2023-06-14T12:33:58;8.95;;;8.15;;
12214;SDS011;6170;42.206;24.142;2023-06-14T12:36:26;10.93;;;7.68;;
12214;SDS011;6170;42.206;24.142;2023-06-14T12:38:52;8.88;;;7.30;;
12214;SDS011;6170;42.206;24.142;2023-06-14T12:41:21;9.10;;;8.30;;
12214;SDS011;6170;42.206;24.142;2023-06-14T12:43:48;9.82;;;8.05;;
12214;SDS011;6170;42.206;24.142;2023-06-14T12:46:15;7.47;;;6.65;;
12214;SDS011;6170;42.206;24.142;2023-06-14T12:48:42;12.27;;;7.82;;
12214;SDS011;6170;42.206;24.142;2023-06-14T12:51:08;10.35;;;7.95;;
12214;SDS011;6170;42.206;24.142;2023-06-14T12:53:35;8.38;;;7.57;;
12214;SDS011;6170;42.206;24.142;2023-06-14T12:56:02;9.57;;;7.80;;
12214;SDS011;6170;42.206;24.142;2023-06-14T12:58:30;8.93;;;8.02;;
12214;SDS011;6170;42.206;24.142;2023-06-14T13:00:57;9.25;;;7.07;;
12214;SDS011;6170;42.206;24.142;2023-06-14T13:03:24;7.85;;;6.50;;
12214;SDS011;6170;42.206;24.142;2023-06-14T13:05:51;8.30;;;6.60;;
12214;SDS011;6170;42.206;24.142;2023-06-14T13:08:18;10.20;;;7.25;;
12214;SDS011;6170;42.206;24.142;2023-06-14T13:10:45;8.93;;;8.02;;
12214;SDS011;6170;42.206;24.142;2023-06-14T13:13:12;9.82;;;7.82;;
12214;SDS011;6170;42.206;24.142;2023-06-14T13:15:40;9.35;;;8.45;;
12214;SDS011;6170;42.206;24.142;2023-06-14T13:18:07;10.27;;;8.48;;
12214;SDS011;6170;42.206;24.142;2023-06-14T13:20:34;9.95;;;8.95;;
12214;SDS011;6170;42.206;24.142;2023-06-14T13:23:01;11.60;;;8.73;;
12214;SDS011;6170;42.206;24.142;2023-06-14T13:25:29;9.35;;;8.38;;
12214;SDS011;6170;42.206;24.142;2023-06-14T13:27:56;12.32;;;8.82;;
12214;SDS011;6170;42.206;24.142;2023-06-14T13:30:23;11.93;;;8.95;;
12214;SDS011;6170;42.206;24.142;2023-06-14T13:32:51;9.55;;;8.25;;
12214;SDS011;6170;42.206;24.142;2023-06-14T13:35:18;8.95;;;7.68;;
12214;SDS011;6170;42.206;24.142;2023-06-14T13:37:45;8.73;;;7.80;;
12214;SDS011;6170;42.206;24.142;2023-06-14T13:40:12;11.82;;;9.10;;
12214;SDS011;6170;42.206;24.142;2023-06-14T13:42:39;8.73;;;7.80;;
12214;SDS011;6170;42.206;24.142;2023-06-14T13:45:07;9.30;;;8.45;;
12214;SDS011;6170;42.206;24.142;2023-06-14T13:47:35;12.60;;;9.05;;
12214;SDS011;6170;42.206;24.142;2023-06-14T13:50:03;11.02;;;8.85;;
12214;SDS011;6170;42.206;24.142;2023-06-14T13:52:31;10.07;;;8.48;;
12214;SDS011;6170;42.206;24.142;2023-06-14T13:54:58;10.63;;;8.43;;
12214;SDS011;6170;42.206;24.142;2023-06-14T13:57:25;13.20;;;8.35;;
12214;SDS011;6170;42.206;24.142;2023-06-14T13:59:52;14.10;;;9.30;;
12214;SDS011;6170;42.206;24.142;2023-06-14T14:02:20;11.95;;;9.60;;
12214;SDS011;6170;42.206;24.142;2023-06-14T14:04:47;9.27;;;8.38;;
12214;SDS011;6170;42.206;24.142;2023-06-14T14:07:20;11.32;;;9.63;;
12214;SDS011;6170;42.206;24.142;2023-06-14T14:09:47;9.77;;;8.52;;
12214;SDS011;6170;42.206;24.142;2023-06-14T14:12:14;14.40;;;9.40;;
12214;SDS011;6170;42.206;24.142;2023-06-14T14:14:41;18.80;;;9.90;;
12214;SDS011;6170;42.206;24.142;2023-06-14T14:17:08;12.32;;;9.43;;
12214;SDS011;6170;42.206;24.142;2023-06-14T14:19:34;14.18;;;8.75;;
12214;SDS011;6170;42.206;24.142;2023-06-14T14:22:02;11.07;;;9.35;;
12214;SDS011;6170;42.206;24.142;2023-06-14T14:24:30;10.00;;;9.00;;
12214;SDS011;6170;42.206;24.142;2023-06-14T14:26:57;10.13;;;9.13;;
12214;SDS011;6170;42.206;24.142;2023-06-14T14:29:25;11.38;;;10.18;;
12214;SDS011;6170;42.206;24.142;2023-06-14T14:31:54;10.52;;;9.52;;
12214;SDS011;6170;42.206;24.142;2023-06-14T14:34:21;10.52;;;9.00;;
12214;SDS011;6170;42.206;24.142;2023-06-14T14:36:48;11.00;;;9.57;;
12214;SDS011;6170;42.206;24.142;2023-06-14T14:39:15;15.63;;;10.10;;
12214;SDS011;6170;42.206;24.142;2023-06-14T14:41:43;9.73;;;8.82;;
12214;SDS011;6170;42.206;24.142;2023-06-14T14:44:10;12.10;;;9.48;;
12214;SDS011;6170;42.206;24.142;2023-06-14T14:46:37;10.30;;;9.30;;
12214;SDS011;6170;42.206;24.142;2023-06-14T14:49:04;10.23;;;8.98;;
12214;SDS011;6170;42.206;24.142;2023-06-14T14:51:31;11.38;;;9.23;;
12214;SDS011;6170;42.206;24.142;2023-06-14T14:53:58;11.10;;;10.00;;
12214;SDS011;6170;42.206;24.142;2023-06-14T14:56:25;10.40;;;8.85;;